Time;durP1;ratioP1;P1;durP2;ratioP2;P2;SDS_P1;SDS_P2;PMS_P1;PMS_P2;Temp;Humidity;BMP_temperature;BMP_pressure;BME280_temperature;BME280_humidity;BME280_pressure;Samples;Min_cycle;Max_cycle;Signal;HPM_P1;HPM_P2
2021/10/02 00:33:51;;;;;;;;;5.50;4.50;;;;;13.23;80.39;100269.56;5067917;28;45356;-84
2021/10/02 00:47:02;;;;;;;;;9.75;7.50;;;;;13.21;80.52;100264.34;5056831;28;45238;-84
2021/10/02 00:49:27;;;;;;;;;7.50;7.50;;;;;13.18;80.21;100261.91;5075736;28;45414;-84
2021/10/02 00:51:53;;;;;;;;;7.25;7.00;;;;;13.17;80.40;100256.63;5067407;28;46290;-84
2021/10/02 00:54:18;;;;;;;;;8.00;7.25;;;;;13.14;80.21;100249.72;5063663;28;45255;-84
2021/10/02 00:56:43;;;;;;;;;8.00;5.00;;;;;13.08;80.12;100255.47;5077104;28;45140;-85
2021/10/02 00:59:09;;;;;;;;;8.50;7.75;;;;;13.04;80.24;100244.19;5076590;28;45145;-84
2021/10/02 01:01:50;;;;;;;;;6.75;6.00;;;;;13.19;80.55;100271.59;5076905;28;45942;-85
2021/10/02 01:04:27;;;;;;;;;8.00;6.00;;;;;13.16;80.45;100261.13;5076431;28;45214;-85
2021/10/02 01:07:12;;;;;;;;;4.00;4.00;;;;;13.16;80.59;100266.47;5075138;28;45211;-84
2021/10/02 01:09:57;;;;;;;;;8.25;5.25;;;;;13.12;80.54;100260.50;5063185;28;45303;-84
2021/10/02 01:13:15;;;;;;;;;6.50;6.00;;;;;13.12;80.46;100268.53;5056146;28;45582;-84
2021/10/02 01:15:50;;;;;;;;;11.00;7.00;;;;;13.07;80.56;100261.81;4993515;28;45470;-84
2021/10/02 01:18:20;;;;;;;;;8.50;7.75;;;;;13.04;80.19;100254.84;4993649;28;45420;-83
2021/10/02 01:21:20;;;;;;;;;7.00;6.00;;;;;13.16;80.46;100265.63;4993561;28;45319;-84
2021/10/02 01:24:24;;;;;;;;;9.00;6.25;;;;;13.21;80.46;100274.16;4974907;28;46456;-84
2021/10/02 01:27:18;;;;;;;;;11.00;7.00;;;;;13.22;80.18;100266.03;4974971;28;45304;-84
2021/10/02 01:29:44;;;;;;;;;8.00;7.25;;;;;13.20;79.95;100246.59;4974204;28;45279;-84
2021/10/02 01:32:21;;;;;;;;;7.00;5.50;;;;;13.20;79.93;100243.94;4974166;28;45220;-83
2021/10/02 01:35:05;;;;;;;;;7.75;7.75;;;;;13.19;79.81;100247.56;4973946;28;46423;-84
2021/10/02 01:48:20;;;;;;;;;5.25;5.25;;;;;13.09;80.15;100199.31;4975579;28;45640;-84
2021/10/02 01:50:50;;;;;;;;;6.00;4.00;;;;;13.09;80.02;100204.66;4981665;28;45213;-84
2021/10/02 01:53:16;;;;;;;;;4.00;3.75;;;;;12.97;80.07;100194.88;5057199;28;45243;-84
2021/10/02 01:55:42;;;;;;;;;3.00;3.00;;;;;13.09;80.26;100214.47;5056917;28;46167;-85
2021/10/02 01:58:11;;;;;;;;;5.50;5.00;;;;;12.95;80.10;100178.09;5039107;28;45201;-84
2021/10/02 02:00:43;;;;;;;;;2.75;2.25;;;;;13.07;80.06;100198.59;5056725;28;45273;-84
2021/10/02 02:03:11;;;;;;;;;6.50;3.75;;;;;13.07;79.89;100206.59;5057071;28;45327;-84
2021/10/02 02:05:38;;;;;;;;;3.25;2.75;;;;;13.06;79.75;100199.53;5056596;28;45225;-84
2021/10/02 02:08:06;;;;;;;;;3.00;3.00;;;;;13.09;79.96;100204.66;5057047;28;45262;-84
2021/10/02 02:10:32;;;;;;;;;2.75;2.75;;;;;13.07;79.97;100197.75;5056645;28;45259;-84
2021/10/02 02:13:00;;;;;;;;;3.50;2.25;;;;;13.06;79.81;100191.53;5056812;28;45179;-84
2021/10/02 02:15:31;;;;;;;;;3.00;3.00;;;;;13.03;79.82;100197.09;5056157;28;46287;-85
2021/10/02 02:18:02;;;;;;;;;4.25;3.00;;;;;13.03;79.84;100193.59;5055753;28;45258;-84
2021/10/02 02:20:39;;;;;;;;;2.00;2.00;;;;;13.02;79.92;100183.88;5056292;28;45242;-84
2021/10/02 02:23:06;;;;;;;;;3.00;2.00;;;;;12.94;79.96;100182.59;5038494;28;45252;-84
2021/10/02 02:25:32;;;;;;;;;5.00;3.00;;;;;12.87;79.67;100167.97;5056183;28;45457;-84
2021/10/02 02:27:57;;;;;;;;;3.50;3.50;;;;;12.93;79.99;100175.53;5056910;28;45591;-84
2021/10/02 02:30:23;;;;;;;;;4.00;2.25;;;;;12.89;80.00;100158.03;5056544;28;45275;-84
2021/10/02 02:32:52;;;;;;;;;5.25;5.00;;;;;12.88;79.85;100151.03;5059420;28;45513;-83
2021/10/02 02:35:19;;;;;;;;;7.75;3.25;;;;;12.90;79.68;100151.75;5058761;28;45383;-84
2021/10/02 02:37:45;;;;;;;;;8.50;5.00;;;;;12.89;79.92;100158.03;5054403;28;45774;-84
2021/10/02 02:40:11;;;;;;;;;4.00;3.00;;;;;12.77;79.78;100134.94;5063503;28;45336;-84
2021/10/02 02:42:37;;;;;;;;;3.75;3.50;;;;;12.74;79.89;100128.00;5056404;28;45265;-84
2021/10/02 02:45:03;;;;;;;;;5.50;4.00;;;;;12.96;79.94;100166.47;5061222;28;46067;-84
2021/10/02 02:47:32;;;;;;;;;4.25;4.00;;;;;12.93;79.71;100164.03;5069905;28;45651;-83
2021/10/02 02:50:08;;;;;;;;;4.00;4.00;;;;;12.74;79.75;100125.31;5075170;28;45383;-84
2021/10/02 02:52:42;;;;;;;;;5.75;4.00;;;;;12.93;79.90;100142.69;5058234;28;45334;-83
2021/10/02 02:55:12;;;;;;;;;5.50;4.50;;;;;12.91;79.67;100139.25;5075829;28;46847;-84
2021/10/02 02:57:47;;;;;;;;;6.25;5.00;;;;;12.84;79.51;100138.00;5071906;28;45273;-84
2021/10/02 03:00:16;;;;;;;;;6.00;6.00;;;;;12.83;79.65;100137.16;5062324;28;45290;-84
2021/10/02 03:02:46;;;;;;;;;5.50;4.25;;;;;12.78;79.57;100141.94;5068780;28;45195;-83
2021/10/02 03:05:12;;;;;;;;;5.00;5.00;;;;;12.71;79.86;100128.22;5058988;28;46316;-84
2021/10/02 03:07:42;;;;;;;;;5.25;4.00;;;;;12.66;79.63;100098.34;5056223;28;45358;-83
2021/10/02 03:10:11;;;;;;;;;8.00;6.00;;;;;12.68;79.87;100101.72;5037953;28;45308;-85
2021/10/02 03:12:41;;;;;;;;;7.25;7.00;;;;;12.68;80.15;100130.22;5056161;28;45243;-84
2021/10/02 03:15:14;;;;;;;;;8.50;8.00;;;;;12.67;80.29;100144.53;5055600;28;45218;-83
2021/10/02 03:17:42;;;;;;;;;8.75;5.00;;;;;12.64;80.31;100150.06;5055889;28;45365;-84
2021/10/02 03:20:09;;;;;;;;;9.75;9.75;;;;;12.55;80.48;100139.09;5055446;28;45282;-84
2021/10/02 03:22:35;;;;;;;;;12.00;10.00;;;;;12.57;80.51;100123.00;5055590;28;45397;-83
2021/10/02 03:25:01;;;;;;;;;10.00;9.00;;;;;12.47;80.44;100093.47;5055382;28;45263;-84
2021/10/02 03:27:28;;;;;;;;;9.00;9.00;;;;;12.43;80.25;100075.97;5055609;28;45267;-83
2021/10/02 03:29:55;;;;;;;;;7.50;6.75;;;;;12.46;80.57;100070.44;5058572;28;45231;-83
2021/10/02 03:32:23;;;;;;;;;10.00;8.25;;;;;12.48;80.68;100081.81;5059160;28;45176;-83
2021/10/02 03:34:51;;;;;;;;;12.00;9.00;;;;;12.41;80.84;100070.75;5058961;28;47093;-83
2021/10/02 03:37:16;;;;;;;;;8.75;8.75;;;;;12.20;80.97;100041.13;5058655;28;45581;-83
2021/10/02 03:39:41;;;;;;;;;8.00;7.50;;;;;12.34;80.77;100073.94;5059208;28;45230;-84
2021/10/02 03:42:12;;;;;;;;;9.25;8.00;;;;;12.34;81.07;100081.94;5059095;28;45516;-84
2021/10/02 03:44:40;;;;;;;;;9.75;9.50;;;;;12.30;81.04;100061.78;5058651;28;45344;-84
2021/10/02 03:47:06;;;;;;;;;11.00;9.00;;;;;12.28;81.66;100061.91;5058810;28;45302;-84
2021/10/02 03:49:31;;;;;;;;;8.00;8.00;;;;;12.17;81.63;100051.13;5059098;28;45299;-83
2021/10/02 03:51:56;;;;;;;;;6.50;6.25;;;;;12.10;81.99;100056.06;5059065;28;45261;-84
2021/10/02 03:54:22;;;;;;;;;8.00;7.50;;;;;12.11;82.17;100060.41;5059133;28;46358;-83
2021/10/02 03:56:47;;;;;;;;;9.00;8.50;;;;;12.15;81.97;100064.56;5059239;28;45239;-83
2021/10/02 03:59:12;;;;;;;;;10.00;7.25;;;;;12.13;82.12;100063.84;5059118;28;45230;-83
2021/10/02 04:01:37;;;;;;;;;10.00;9.25;;;;;12.19;82.36;100049.25;5058626;28;45207;-83
2021/10/02 04:04:03;;;;;;;;;8.50;8.50;;;;;12.11;82.56;100030.25;5058397;28;46240;-83
2021/10/02 04:06:29;;;;;;;;;9.75;8.50;;;;;12.10;82.32;100029.41;5058834;28;45188;-83
2021/10/02 04:08:54;;;;;;;;;9.00;9.00;;;;;12.15;82.31;100040.59;5058955;28;45236;-83
2021/10/02 04:11:20;;;;;;;;;10.25;10.25;;;;;12.23;82.62;100056.91;5058718;28;45282;-83
2021/10/02 04:13:45;;;;;;;;;10.25;9.75;;;;;12.25;82.42;100062.13;5058550;28;46029;-83
2021/10/02 04:16:10;;;;;;;;;9.75;9.25;;;;;12.34;82.51;100065.94;5057971;28;45202;-84
2021/10/02 04:18:36;;;;;;;;;9.25;9.25;;;;;12.32;82.80;100055.41;5058851;28;45178;-83
2021/10/02 04:21:01;;;;;;;;;10.25;9.00;;;;;12.24;82.16;100039.97;5071566;28;45191;-84
2021/10/02 04:23:27;;;;;;;;;8.50;7.00;;;;;12.44;82.71;100064.34;5078831;28;46482;-84
2021/10/02 04:25:52;;;;;;;;;11.25;10.25;;;;;12.46;82.45;100059.75;5078239;28;45195;-84
2021/10/02 04:28:17;;;;;;;;;8.50;8.50;;;;;12.40;82.82;100041.53;5079085;28;45238;-85
2021/10/02 04:30:43;;;;;;;;;10.75;9.75;;;;;12.50;82.69;100061.25;5071018;28;45119;-84
2021/10/02 04:33:09;;;;;;;;;11.75;9.50;;;;;12.57;82.43;100077.69;5064836;28;45552;-84
2021/10/02 04:35:34;;;;;;;;;11.00;9.00;;;;;12.52;82.16;100071.81;5077424;28;45241;-84
2021/10/02 04:37:59;;;;;;;;;9.25;9.25;;;;;12.65;82.16;100063.78;5066046;28;45192;-84
2021/10/02 04:40:25;;;;;;;;;13.50;12.25;;;;;12.69;82.11;100052.78;5056896;28;45240;-84
2021/10/02 04:42:50;;;;;;;;;13.00;10.75;;;;;12.65;82.13;100040.63;5057938;28;45285;-84
2021/10/02 04:45:18;;;;;;;;;9.00;8.00;;;;;12.77;82.18;100069.06;5071199;28;45340;-84
2021/10/02 04:47:45;;;;;;;;;9.75;9.75;;;;;12.82;82.05;100071.41;5066692;28;45222;-83
2021/10/02 04:50:11;;;;;;;;;9.50;9.00;;;;;12.88;82.04;100064.78;5060536;28;45375;-84
2021/10/02 04:52:38;;;;;;;;;14.25;12.75;;;;;12.88;81.97;100059.44;5063220;28;45337;-84
2021/10/02 04:55:04;;;;;;;;;11.25;10.25;;;;;12.89;81.71;100051.31;5044151;28;45457;-84
2021/10/02 04:57:30;;;;;;;;;11.25;8.75;;;;;13.03;81.65;100070.81;5052653;28;46372;-84
2021/10/02 04:59:55;;;;;;;;;7.50;7.25;;;;;12.96;81.35;100065.06;5046362;28;45269;-85
2021/10/02 05:02:20;;;;;;;;;8.75;8.50;;;;;13.04;81.56;100073.38;5075109;28;45332;-83
2021/10/02 05:04:45;;;;;;;;;8.00;7.50;;;;;13.10;81.44;100083.59;5057242;28;45314;-83
2021/10/02 05:07:11;;;;;;;;;10.00;7.50;;;;;13.12;81.43;100079.00;5057689;28;45493;-83
2021/10/02 05:09:36;;;;;;;;;7.00;7.00;;;;;13.15;81.43;100074.41;5058578;28;45289;-83
2021/10/02 05:12:02;;;;;;;;;6.00;6.00;;;;;13.13;81.23;100062.00;5073200;28;45769;-84
2021/10/02 05:14:27;;;;;;;;;7.00;6.00;;;;;13.20;81.35;100056.22;5071330;28;45342;-83
2021/10/02 05:16:52;;;;;;;;;7.50;6.00;;;;;13.23;80.88;100046.16;5059200;28;45270;-84
2021/10/02 05:19:18;;;;;;;;;8.50;5.50;;;;;13.16;80.62;100020.06;5059313;28;45167;-83
2021/10/02 05:21:43;;;;;;;;;6.00;5.00;;;;;13.13;80.97;100011.28;5077641;28;45534;-84
2021/10/02 05:24:09;;;;;;;;;6.00;5.00;;;;;13.19;80.63;100003.81;5077506;28;45254;-84
2021/10/02 05:26:34;;;;;;;;;8.25;5.00;;;;;13.33;80.86;100019.63;5077553;28;45437;-84
2021/10/02 05:28:59;;;;;;;;;5.00;5.00;;;;;13.31;80.28;100013.56;5059135;28;45140;-84
2021/10/02 05:31:25;;;;;;;;;7.00;4.75;;;;;13.33;80.59;100016.13;5076857;28;45472;-83
2021/10/02 05:33:50;;;;;;;;;7.25;6.75;;;;;13.25;80.50;100004.19;5077350;28;45289;-84
2021/10/02 05:36:16;;;;;;;;;5.00;4.25;;;;;13.21;80.35;99993.84;5077211;28;45185;-84
2021/10/02 05:38:41;;;;;;;;;4.25;4.25;;;;;13.12;80.38;99977.56;5077203;28;45381;-84
2021/10/02 05:41:06;;;;;;;;;7.00;4.25;;;;;13.29;80.33;100002.13;5076861;28;45264;-84
2021/10/02 05:43:32;;;;;;;;;6.00;5.00;;;;;13.29;80.22;99997.63;5058741;28;45172;-84
2021/10/02 05:45:57;;;;;;;;;5.00;3.25;;;;;13.18;80.30;99970.06;5076870;28;45261;-84
2021/10/02 05:48:22;;;;;;;;;5.00;4.00;;;;;13.29;80.39;99997.63;5059011;28;45339;-84
2021/10/02 05:50:48;;;;;;;;;4.00;4.00;;;;;13.33;80.29;99998.28;5058340;28;46541;-84
2021/10/02 05:53:13;;;;;;;;;6.75;4.50;;;;;13.16;80.10;99964.00;5076912;28;45366;-84
2021/10/02 05:55:38;;;;;;;;;5.50;2.75;;;;;13.30;80.13;100006.50;5076780;28;45303;-84
2021/10/02 05:58:04;;;;;;;;;4.25;4.25;;;;;13.25;80.37;99998.88;5077308;28;45216;-84
2021/10/02 06:00:29;;;;;;;;;3.75;3.75;;;;;13.25;80.21;100006.00;5058266;28;48285;-84
2021/10/02 06:02:56;;;;;;;;;5.75;3.25;;;;;13.20;80.07;99995.66;5076529;28;45266;-84
2021/10/02 06:05:26;;;;;;;;;5.00;3.75;;;;;13.14;80.05;99982.81;5056321;28;45234;-85
2021/10/02 06:07:52;;;;;;;;;4.00;4.00;;;;;13.24;80.05;100007.81;5064093;28;45262;-83
2021/10/02 06:10:17;;;;;;;;;4.25;3.50;;;;;13.16;80.00;100010.22;5069060;28;45187;-84
2021/10/02 06:12:42;;;;;;;;;3.00;3.00;;;;;13.05;80.05;100002.16;5074160;28;45436;-85
2021/10/02 06:15:08;;;;;;;;;6.25;5.00;;;;;13.17;80.15;100009.25;5056300;28;45299;-84
2021/10/02 06:17:33;;;;;;;;;16.50;15.75;;;;;13.21;80.10;100013.41;5038703;28;45196;-84
2021/10/02 06:19:58;;;;;;;;;8.67;8.67;;;;;13.11;80.22;99975.00;5037954;28;48301;-85
2021/10/02 06:22:24;;;;;;;;;8.50;6.00;;;;;13.13;79.83;99979.25;5038024;28;45299;-84
2021/10/02 06:24:49;;;;;;;;;3.50;3.25;;;;;13.18;79.79;99964.72;5037992;28;45314;-84
2021/10/02 06:27:15;;;;;;;;;3.00;3.00;;;;;13.21;79.67;99959.16;5056784;28;45255;-85
2021/10/02 06:29:41;;;;;;;;;4.75;3.50;;;;;13.26;79.74;99965.84;5056272;28;46156;-85
2021/10/02 06:32:06;;;;;;;;;4.00;2.75;;;;;13.33;79.58;99984.91;5056438;28;45295;-84
2021/10/02 06:34:32;;;;;;;;;7.00;2.75;;;;;13.32;79.15;99979.69;5056065;28;45433;-85
2021/10/02 06:36:57;;;;;;;;;3.00;3.00;;;;;13.38;79.40;99981.91;5056361;28;45330;-85
2021/10/02 06:39:22;;;;;;;;;2.00;2.00;;;;;13.36;78.69;99983.88;5056033;28;46069;-85
2021/10/02 06:41:48;;;;;;;;;2.75;2.75;;;;;13.30;79.03;99978.00;5055968;28;45464;-85
2021/10/02 06:44:13;;;;;;;;;2.00;2.00;;;;;13.29;79.00;99975.44;5049636;28;45295;-85
2021/10/02 06:46:38;;;;;;;;;4.25;2.50;;;;;13.29;78.76;99983.44;5073380;28;45490;-84
2021/10/02 06:49:04;;;;;;;;;4.00;3.00;;;;;13.33;79.04;99984.06;5070614;28;46906;-85
2021/10/02 06:51:29;;;;;;;;;4.50;2.00;;;;;13.39;78.69;99989.81;5073586;28;45289;-85
2021/10/02 06:53:54;;;;;;;;;3.50;3.50;;;;;13.39;78.17;99978.28;5075983;28;45269;-85
2021/10/02 06:56:20;;;;;;;;;5.00;2.00;;;;;13.28;78.78;99955.91;5076405;28;45198;-85
2021/10/02 06:58:45;;;;;;;;;3.75;2.00;;;;;13.30;78.48;99969.13;5075651;28;45407;-85
2021/10/02 07:01:10;;;;;;;;;7.50;3.00;;;;;13.32;78.37;99985.88;5076427;28;45123;-84
2021/10/02 07:03:36;;;;;;;;;2.50;2.50;;;;;13.30;78.07;99993.16;5077251;28;45119;-85
2021/10/02 07:06:01;;;;;;;;;7.25;3.00;;;;;13.31;78.61;99994.88;5079717;28;45140;-85
2021/10/02 07:08:26;;;;;;;;;3.75;3.00;;;;;13.35;78.39;99995.50;5080150;28;46246;-87
2021/10/02 07:10:52;;;;;;;;;3.00;2.00;;;;;13.35;78.40;99993.69;5079602;28;45107;-86
2021/10/02 07:13:17;;;;;;;;;5.25;2.75;;;;;13.38;78.51;99988.13;5079693;28;45078;-86
2021/10/02 07:15:43;;;;;;;;;7.50;2.00;;;;;13.40;78.02;99974.66;5079538;28;45257;-85
2021/10/02 07:18:08;;;;;;;;;4.00;2.00;;;;;13.39;78.12;99965.78;5079793;28;45943;-86
2021/10/02 07:20:34;;;;;;;;;6.50;1.50;;;;;13.30;78.07;99961.97;5079964;28;45176;-85
2021/10/02 07:22:59;;;;;;;;;3.00;1.75;;;;;13.36;78.17;99966.03;5080057;28;45321;-87
2021/10/02 07:25:25;;;;;;;;;3.50;2.25;;;;;13.37;78.15;99962.41;5079652;28;45226;-85
2021/10/02 07:27:51;;;;;;;;;2.75;2.00;;;;;13.36;78.07;99947.34;5079591;28;46967;-85
2021/10/02 07:30:17;;;;;;;;;3.25;2.00;;;;;13.33;77.84;99947.53;5079857;28;45643;-86
2021/10/02 07:32:43;;;;;;;;;2.00;2.00;;;;;13.35;78.36;99948.28;5079830;28;45225;-89
2021/10/02 07:35:11;;;;;;;;;3.00;3.00;;;;;13.38;78.65;99942.75;5080389;28;45202;-87
2021/10/02 07:37:36;;;;;;;;;7.75;3.00;;;;;13.40;78.09;99948.78;5078828;28;45176;-86
2021/10/02 07:40:06;;;;;;;;;5.75;3.00;;;;;13.38;77.69;99942.75;5079256;28;45267;-86
2021/10/02 07:42:35;;;;;;;;;4.50;2.50;;;;;13.35;78.08;99950.13;5079312;28;45277;-88
2021/10/02 07:45:07;;;;;;;;;4.75;3.75;;;;;13.24;77.84;99933.06;5079396;28;45191;-87
2021/10/02 07:47:37;;;;;;;;;4.50;3.00;;;;;13.21;78.00;99930.66;5076670;28;46203;-90
2021/10/02 07:50:06;;;;;;;;;2.75;2.00;;;;;13.21;78.25;99943.13;5078604;28;45072;-84
2021/10/02 07:52:32;;;;;;;;;4.00;1.75;;;;;13.21;78.25;99943.13;5072652;28;45301;-83
2021/10/02 07:54:58;;;;;;;;;4.00;3.25;;;;;13.16;77.59;99940.81;5068328;28;45360;-84
2021/10/02 07:57:24;;;;;;;;;7.50;3.00;;;;;13.12;77.82;99944.69;5063011;28;47113;-90
2021/10/02 07:59:50;;;;;;;;;3.00;1.50;;;;;13.08;77.68;99928.06;5079209;28;45187;-84
2021/10/02 08:02:18;;;;;;;;;4.00;3.00;;;;;13.08;78.05;99922.72;5066827;28;45302;-84
2021/10/02 08:04:44;;;;;;;;;5.00;3.00;;;;;13.08;77.90;99924.53;5071789;28;45336;-86
2021/10/02 08:07:10;;;;;;;;;5.25;3.50;;;;;13.09;77.43;99913.72;5070124;28;46233;-87
2021/10/02 08:09:35;;;;;;;;;62.75;46.25;;;;;13.10;77.83;99907.44;5063870;28;45254;-88
2021/10/02 08:12:01;;;;;;;;;10.50;10.00;;;;;13.18;77.67;99908.66;5070157;28;45291;-87
2021/10/02 08:14:26;;;;;;;;;11.50;8.75;;;;;13.21;77.29;99887.94;5061762;28;45186;-86
2021/10/02 08:16:52;;;;;;;;;4.50;4.50;;;;;13.19;77.16;99878.34;5074041;28;45476;-88
2021/10/02 08:19:20;;;;;;;;;5.50;4.00;;;;;13.28;76.87;99896.31;5063413;28;45776;-88
2021/10/02 08:21:47;;;;;;;;;10.75;9.00;;;;;13.34;76.87;99901.19;5062341;28;45223;-86
2021/10/02 08:24:14;;;;;;;;;19.00;17.25;;;;;13.35;76.78;99902.06;5072689;28;45289;-86
2021/10/02 08:26:41;;;;;;;;;5.75;4.75;;;;;13.39;76.67;99901.69;5077808;28;45363;-86
2021/10/02 08:29:07;;;;;;;;;5.50;4.25;;;;;13.47;76.60;99901.13;5074391;28;45241;-86
2021/10/02 08:31:33;;;;;;;;;6.00;5.00;;;;;13.55;76.02;99892.50;5078546;28;45412;-85
2021/10/02 08:33:58;;;;;;;;;5.25;4.50;;;;;13.60;75.80;99895.66;5072576;28;45393;-84
2021/10/02 08:36:24;;;;;;;;;4.50;2.75;;;;;13.67;75.98;99891.53;5068141;28;45347;-85
2021/10/02 08:38:49;;;;;;;;;3.00;3.00;;;;;13.74;75.22;99882.06;5074779;28;45222;-84
2021/10/02 08:41:19;;;;;;;;;6.00;3.00;;;;;13.77;75.44;99886.31;5078991;28;45198;-84
2021/10/02 08:43:50;;;;;;;;;5.00;3.00;;;;;13.80;75.37;99889.59;5058352;28;45372;-85
2021/10/02 08:46:16;;;;;;;;;5.25;3.50;;;;;13.83;75.57;99887.66;5067400;28;46587;-84
2021/10/02 08:48:42;;;;;;;;;4.50;3.00;;;;;13.83;74.29;99866.28;5072976;28;45498;-84
2021/10/02 08:51:08;;;;;;;;;5.50;3.25;;;;;13.89;74.76;99879.13;5068727;28;45350;-84
2021/10/02 08:53:33;;;;;;;;;3.00;3.00;;;;;13.98;74.08;99871.25;5068756;28;45228;-84
2021/10/02 08:56:03;;;;;;;;;10.25;3.75;;;;;14.00;73.84;99864.94;5075598;28;45242;-84
2021/10/02 08:58:30;;;;;;;;;3.25;3.25;;;;;14.08;73.66;99874.03;5058896;28;45568;-84
2021/10/02 09:00:56;;;;;;;;;4.00;4.00;;;;;14.07;73.01;99858.09;5064265;28;45289;-85
2021/10/02 09:03:22;;;;;;;;;8.50;5.75;;;;;14.01;73.81;99867.47;5057343;28;45160;-85
2021/10/02 09:05:47;;;;;;;;;11.75;8.75;;;;;14.05;73.60;99863.59;5070888;28;45876;-83
2021/10/02 09:08:13;;;;;;;;;29.00;20.25;;;;;14.06;73.08;99856.41;5075980;28;45117;-83
2021/10/02 09:10:39;;;;;;;;;25.75;23.00;;;;;14.20;74.03;99847.25;5070328;28;45357;-83
2021/10/02 09:13:05;;;;;;;;;11.25;7.50;;;;;14.57;72.78;99826.34;5072161;28;45218;-84
2021/10/02 09:15:31;;;;;;;;;16.75;13.25;;;;;14.92;69.95;99806.50;5056697;28;46477;-83
2021/10/02 09:17:56;;;;;;;;;9.00;4.75;;;;;15.10;70.02;99793.31;5071046;28;45635;-84
2021/10/02 09:20:23;;;;;;;;;19.50;19.50;;;;;15.25;70.71;99807.22;5068875;28;45254;-85
2021/10/02 09:22:56;;;;;;;;;19.75;16.00;;;;;15.42;70.59;99804.91;5062347;28;45202;-84
2021/10/02 09:25:23;;;;;;;;;10.75;8.75;;;;;15.63;70.08;99803.00;5069735;28;46234;-84
2021/10/02 09:28:03;;;;;;;;;13.25;9.75;;;;;15.88;67.76;99790.97;5058543;28;45620;-85
2021/10/02 09:30:30;;;;;;;;;31.00;27.25;;;;;16.16;69.26;99785.81;5060234;28;45320;-85
2021/10/02 09:33:10;;;;;;;;;6.00;4.00;;;;;16.58;67.49;99763.22;5062052;28;45408;-85
2021/10/02 09:35:39;;;;;;;;;8.25;5.50;;;;;16.84;66.90;99760.75;5071290;28;46129;-85
2021/10/02 09:38:10;;;;;;;;;10.25;8.75;;;;;17.01;66.23;99753.81;5070618;28;45304;-84
2021/10/02 09:40:36;;;;;;;;;4.00;3.25;;;;;17.16;65.96;99739.91;5072739;28;45427;-83
2021/10/02 09:43:03;;;;;;;;;4.50;4.50;;;;;17.19;65.51;99724.34;5077088;28;45160;-84
2021/10/02 09:45:36;;;;;;;;;9.50;5.00;;;;;17.28;63.93;99722.63;5075896;28;45292;-83
2021/10/02 09:48:04;;;;;;;;;12.00;10.75;;;;;17.11;62.95;99702.75;5069273;28;45227;-84
2021/10/02 09:50:34;;;;;;;;;14.00;11.50;;;;;17.05;64.48;99704.19;5038790;28;45259;-84
2021/10/02 09:53:04;;;;;;;;;7.75;5.00;;;;;17.03;62.67;99703.50;5056717;28;45240;-83
2021/10/02 09:55:40;;;;;;;;;4.00;2.25;;;;;17.13;64.96;99690.03;5066386;28;46271;-85
2021/10/02 09:58:09;;;;;;;;;13.00;9.00;;;;;17.34;64.01;99697.00;5060743;28;45226;-83
2021/10/02 10:00:41;;;;;;;;;10.00;7.75;;;;;17.34;63.47;99691.63;5076689;28;45269;-84
2021/10/02 10:03:08;;;;;;;;;10.25;8.25;;;;;17.24;63.10;99688.97;5068578;28;45315;-84
2021/10/02 10:05:37;;;;;;;;;15.75;10.00;;;;;17.07;64.43;99677.19;5070886;28;45237;-84
2021/10/02 10:08:05;;;;;;;;;8.75;4.75;;;;;16.99;63.50;99691.38;5063468;28;45357;-83
2021/10/02 10:10:41;;;;;;;;;12.75;11.25;;;;;16.85;63.72;99673.00;5058991;28;45239;-85
2021/10/02 10:13:21;;;;;;;;;12.25;12.00;;;;;16.68;64.10;99686.19;5065582;28;45286;-85
2021/10/02 10:15:54;;;;;;;;;4.75;3.50;;;;;16.56;65.32;99668.59;5075563;28;46258;-84
2021/10/02 10:18:29;;;;;;;;;6.00;4.00;;;;;16.46;65.50;99657.00;5075091;28;45306;-84
2021/10/02 10:21:04;;;;;;;;;7.50;5.00;;;;;16.42;65.78;99659.16;5074181;28;45203;-85
2021/10/02 10:23:32;;;;;;;;;10.00;4.25;;;;;16.45;66.33;99664.22;5071333;28;45210;-84
2021/10/02 10:26:01;;;;;;;;;1.25;1.25;;;;;16.49;66.43;99662.09;5061046;28;46137;-84
2021/10/02 10:28:29;;;;;;;;;9.75;5.75;;;;;16.53;66.07;99667.03;5073157;28;45241;-89
2021/10/02 10:31:12;;;;;;;;;5.25;4.50;;;;;16.56;65.93;99673.97;5066214;28;45365;-88
2021/10/02 10:33:39;;;;;;;;;4.00;2.00;;;;;16.60;64.53;99683.38;5064937;28;45219;-90
2021/10/02 10:36:05;;;;;;;;;13.00;8.00;;;;;16.53;65.10;99659.00;5067199;28;45221;-88
2021/10/02 10:38:35;;;;;;;;;6.00;2.75;;;;;16.61;63.41;99663.63;5065743;28;45278;-88
2021/10/02 10:41:01;;;;;;;;;10.00;8.25;;;;;16.58;63.94;99642.44;5079384;28;45203;-88
2021/10/02 10:43:26;;;;;;;;;9.75;6.00;;;;;16.51;63.99;99647.53;5079456;28;45227;-87
2021/10/02 10:45:52;;;;;;;;;1.75;1.00;;;;;16.48;62.74;99636.28;5074209;28;45252;-87
2021/10/02 10:48:17;;;;;;;;;4.75;3.00;;;;;16.39;63.13;99628.09;5064302;28;45205;-87
2021/10/02 10:50:44;;;;;;;;;26.00;21.75;;;;;16.33;64.29;99628.69;5062289;28;45513;-89
2021/10/02 10:53:11;;;;;;;;;33.50;27.50;;;;;16.26;64.20;99616.84;5071793;28;45235;-88
2021/10/02 10:56:07;;;;;;;;;4.25;4.25;;;;;16.23;64.19;99601.00;5077692;28;45198;-89
2021/10/02 10:58:32;;;;;;;;;15.75;14.25;;;;;16.20;63.70;99602.19;5042964;28;45708;-88
2021/10/02 11:01:00;;;;;;;;;8.50;8.50;;;;;16.14;64.72;99597.38;5060552;28;45139;-91
2021/10/02 11:03:45;;;;;;;;;3.00;2.50;;;;;16.18;65.33;99592.56;5060189;28;45192;-90
2021/10/02 11:06:19;;;;;;;;;19.00;19.00;;;;;16.22;64.87;99593.97;5059858;28;45288;-88
2021/10/02 11:09:00;;;;;;;;;4.00;3.00;;;;;16.27;64.30;99604.28;5063262;28;45250;-92
2021/10/02 11:11:43;;;;;;;;;3.75;3.75;;;;;16.28;64.99;99585.34;5071668;28;45286;-84
2021/10/02 11:14:10;;;;;;;;;18.00;15.75;;;;;16.29;64.90;99572.75;5067946;28;45291;-83
2021/10/02 11:16:38;;;;;;;;;11.50;11.00;;;;;16.35;65.65;99578.41;5078796;28;46297;-83
2021/10/02 11:19:41;;;;;;;;;8.25;8.25;;;;;16.41;65.52;99568.09;5060266;28;45129;-83
2021/10/02 11:23:00;;;;;;;;;4.75;3.00;;;;;16.46;65.18;99566.66;5073552;28;46283;-86
2021/10/02 11:25:26;;;;;;;;;3.50;3.50;;;;;16.50;66.06;99559.16;5062938;28;45388;-84
2021/10/02 11:27:52;;;;;;;;;2.75;2.50;;;;;16.55;65.51;99546.16;5060093;28;45442;-85
2021/10/02 11:30:20;;;;;;;;;5.50;4.50;;;;;16.59;65.41;99552.03;5079465;28;45290;-83
2021/10/02 11:32:46;;;;;;;;;10.50;7.50;;;;;16.61;65.35;99550.06;5079598;28;45171;-82
2021/10/02 11:35:20;;;;;;;;;6.25;5.50;;;;;16.60;65.70;99541.16;5079246;28;45317;-83
2021/10/02 11:37:52;;;;;;;;;4.00;2.25;;;;;16.61;65.60;99542.03;5078831;28;45204;-80
2021/10/02 11:40:35;;;;;;;;;4.75;4.75;;;;;16.62;65.59;99522.25;5079160;28;45230;-79
2021/10/02 11:43:15;;;;;;;;;7.25;4.00;;;;;16.64;66.05;99515.72;5077263;28;45303;-78
2021/10/02 11:45:54;;;;;;;;;5.50;3.75;;;;;16.59;65.45;99501.91;5063307;28;45235;-79
2021/10/02 11:48:31;;;;;;;;;4.75;3.00;;;;;16.63;65.36;99537.34;5059146;28;46989;-78
2021/10/02 11:51:29;;;;;;;;;12.50;7.50;;;;;16.56;65.35;99502.22;4997457;28;66911;-83
2021/10/02 11:54:09;;;;;;;;;9.00;7.67;;;;;16.43;65.77;99485.63;4582712;28;2742044;-82
2021/10/02 11:56:39;;;;;;;;;13.83;10.00;;;;;16.38;66.66;99467.28;4621038;28;1833696;-82
2021/10/02 11:59:07;;;;;;;;;7.00;6.20;;;;;16.34;66.91;99468.56;4622728;28;2734707;-83
2021/10/02 12:01:42;;;;;;;;;9.00;6.50;;;;;16.31;66.65;99450.94;4601573;28;2740918;-80
2021/10/02 12:04:14;;;;;;;;;12.50;11.00;;;;;16.22;66.85;99444.63;4597972;28;2789943;-80
2021/10/02 12:06:43;;;;;;;;;13.00;11.33;;;;;16.26;67.00;99449.69;4597553;28;2800388;-82
2021/10/02 12:09:12;;;;;;;;;13.50;11.00;;;;;16.22;67.33;99455.34;4597379;28;2793003;-82
2021/10/02 12:11:46;;;;;;;;;6.00;5.00;;;;;16.18;67.47;99453.97;4573606;28;3453397;-81
2021/10/02 12:14:17;;;;;;;;;10.33;9.50;;;;;16.16;67.02;99442.56;4623012;28;2753387;-80
2021/10/02 12:17:02;;;;;;;;;5.00;4.20;;;;;16.12;67.55;99430.44;4624308;28;2746095;-80
2021/10/02 12:19:30;;;;;;;;;9.33;5.00;;;;;16.07;67.69;99427.34;4576166;28;2755501;-80
2021/10/02 12:22:02;;;;;;;;;17.00;16.20;;;;;16.05;67.81;99422.13;4602217;28;3542943;-81
2021/10/02 12:24:31;;;;;;;;;5.20;4.80;;;;;16.09;67.94;99432.56;4622983;28;2746153;-82
2021/10/02 12:27:02;;;;;;;;;12.33;10.17;;;;;16.09;68.01;99441.47;4603692;28;1832028;-81
2021/10/02 12:29:34;;;;;;;;;5.60;5.20;;;;;16.09;68.17;99435.22;4622433;28;2741291;-80